createdAt,value
2022-10-30T00:00:48.305Z,13.30
2022-10-30T00:03:15.782Z,13.30
2022-10-30T00:05:44.199Z,13.30
2022-10-30T00:08:12.009Z,13.20
2022-10-30T00:10:39.242Z,13.20
2022-10-30T00:13:06.415Z,13.20
2022-10-30T00:15:33.472Z,13.20
2022-10-30T00:18:00.793Z,13.20
2022-10-30T00:20:27.854Z,13.20
2022-10-30T00:22:55.161Z,13.10
2022-10-30T00:25:22.126Z,13.10
2022-10-30T00:27:49.071Z,13.10
2022-10-30T00:30:16.473Z,13.10
2022-10-30T00:32:43.942Z,13.10
2022-10-30T00:35:10.913Z,13.10
2022-10-30T00:37:39.028Z,13.10
2022-10-30T00:40:06.795Z,13.10
2022-10-30T00:42:33.719Z,13.10
2022-10-30T00:45:00.563Z,13.10
2022-10-30T00:47:35.772Z,13.10
2022-10-30T00:50:21.558Z,13.10
2022-10-30T00:52:51.641Z,13.00
2022-10-30T00:55:24.408Z,13.00
2022-10-30T00:57:53.210Z,13.00
2022-10-30T01:00:24.258Z,13.00
2022-10-30T01:02:52.040Z,13.00
2022-10-30T01:05:20.338Z,13.00
2022-10-30T01:07:47.260Z,13.00
2022-10-30T01:10:14.788Z,12.90
2022-10-30T01:12:42.381Z,12.90
2022-10-30T01:15:09.419Z,12.90
2022-10-30T01:17:39.294Z,12.90
2022-10-30T01:20:26.360Z,12.90
2022-10-30T01:23:02.467Z,12.90
2022-10-30T01:25:48.915Z,12.80
2022-10-30T01:28:35.752Z,12.90
2022-10-30T01:31:11.625Z,12.80
2022-10-30T01:33:48.115Z,12.80
2022-10-30T01:36:37.926Z,12.80
2022-10-30T01:39:10.666Z,12.80
2022-10-30T01:41:37.534Z,12.80
2022-10-30T01:44:08.138Z,12.80
2022-10-30T01:46:58.292Z,12.80
2022-10-30T01:49:33.122Z,12.70
2022-10-30T01:52:03.317Z,12.70
2022-10-30T01:54:36.423Z,12.80
2022-10-30T01:57:06.373Z,12.70
2022-10-30T01:59:37.370Z,12.70
2022-10-30T02:02:06.750Z,12.70
2022-10-30T02:04:33.995Z,12.70
2022-10-30T02:07:00.883Z,12.70
2022-10-30T02:09:28.116Z,12.60
2022-10-30T02:11:55.278Z,12.60
2022-10-30T02:14:27.904Z,12.60
2022-10-30T02:16:56.618Z,12.60
2022-10-30T02:19:23.459Z,12.60
2022-10-30T02:21:51.129Z,12.60
2022-10-30T02:24:20.392Z,12.60
2022-10-30T02:26:47.318Z,12.50
2022-10-30T02:29:14.215Z,12.60
2022-10-30T02:31:41.972Z,12.50
2022-10-30T02:34:08.749Z,12.50
2022-10-30T02:36:35.930Z,12.50
2022-10-30T02:39:02.859Z,12.50
2022-10-30T02:41:29.781Z,12.50
2022-10-30T02:43:56.699Z,12.50
2022-10-30T02:46:23.674Z,12.50
2022-10-30T02:48:50.688Z,12.50
2022-10-30T02:51:17.657Z,12.40
2022-10-30T02:53:44.818Z,12.40
2022-10-30T02:56:12.954Z,12.40
2022-10-30T02:58:41.218Z,12.40
2022-10-30T03:01:10.839Z,12.40
2022-10-30T03:03:37.921Z,12.40
2022-10-30T03:06:06.888Z,12.40
2022-10-30T03:08:34.608Z,12.40
2022-10-30T03:11:02.917Z,12.30
2022-10-30T03:13:30.564Z,12.40
2022-10-30T03:16:04.757Z,12.30
2022-10-30T03:18:32.647Z,12.40
2022-10-30T03:21:05.144Z,12.40
2022-10-30T03:23:32.029Z,12.40
2022-10-30T03:26:01.395Z,12.40
2022-10-30T03:28:30.507Z,12.40
2022-10-30T03:31:05.601Z,12.40
2022-10-30T03:33:33.267Z,12.40
2022-10-30T03:36:00.885Z,12.50
2022-10-30T03:38:27.944Z,12.50
2022-10-30T03:40:54.803Z,12.50
2022-10-30T03:43:21.810Z,12.50
2022-10-30T03:45:52.747Z,12.50
2022-10-30T03:48:20.237Z,12.50
2022-10-30T03:50:47.613Z,12.50
2022-10-30T03:53:14.816Z,12.60
2022-10-30T03:55:41.803Z,12.60
2022-10-30T03:58:08.781Z,12.60
2022-10-30T04:00:36.012Z,12.60
2022-10-30T04:03:06.885Z,12.60
2022-10-30T04:05:34.179Z,12.60
2022-10-30T04:08:04.242Z,12.60
2022-10-30T04:10:35.241Z,12.60
2022-10-30T04:13:06.813Z,12.60
2022-10-30T04:15:36.352Z,12.60
2022-10-30T04:18:03.560Z,12.70
2022-10-30T04:20:31.590Z,12.60
2022-10-30T04:23:03.542Z,12.70
2022-10-30T04:25:31.767Z,12.70
2022-10-30T04:28:00.350Z,12.70
2022-10-30T04:30:27.648Z,12.70
2022-10-30T04:32:55.884Z,12.70
2022-10-30T04:35:24.599Z,12.70
2022-10-30T04:37:59.065Z,12.70
2022-10-30T04:40:27.729Z,12.70
2022-10-30T04:42:59.630Z,12.70
2022-10-30T04:45:27.307Z,12.70
2022-10-30T04:48:06.377Z,12.70
2022-10-30T04:50:33.718Z,12.70
2022-10-30T04:53:21.257Z,12.70
2022-10-30T04:55:55.670Z,12.70
2022-10-30T04:58:22.544Z,12.70
2022-10-30T05:01:03.105Z,12.70
2022-10-30T05:03:30.697Z,12.70
2022-10-30T05:06:02.719Z,12.70
2022-10-30T05:08:30.112Z,12.70
2022-10-30T05:10:59.496Z,12.70
2022-10-30T05:13:26.292Z,12.70
2022-10-30T05:15:53.985Z,12.70
2022-10-30T05:18:21.254Z,12.70
2022-10-30T05:20:48.182Z,12.70
2022-10-30T05:23:15.055Z,12.70
2022-10-30T05:25:41.921Z,12.70
2022-10-30T05:28:11.388Z,12.70
2022-10-30T05:30:46.148Z,12.70
2022-10-30T05:33:32.395Z,12.70
2022-10-30T05:35:59.267Z,12.70
2022-10-30T05:38:26.122Z,12.70
2022-10-30T05:40:53.721Z,12.70
2022-10-30T05:43:20.636Z,12.70
2022-10-30T05:45:48.942Z,12.60
2022-10-30T05:48:15.755Z,12.60
2022-10-30T05:50:45.144Z,12.60
2022-10-30T05:53:25.821Z,12.60
2022-10-30T05:55:58.212Z,12.60
2022-10-30T05:58:28.087Z,12.60
2022-10-30T06:00:57.365Z,12.60
2022-10-30T06:03:40.444Z,12.60
2022-10-30T06:06:07.577Z,12.60
2022-10-30T06:08:34.550Z,12.60
2022-10-30T06:11:12.043Z,12.60
2022-10-30T06:13:41.286Z,12.60
2022-10-30T06:16:12.347Z,12.60
2022-10-30T06:19:07.755Z,12.60
2022-10-30T06:21:34.855Z,12.60
2022-10-30T06:24:17.493Z,12.60
2022-10-30T06:26:52.616Z,12.60
2022-10-30T06:29:19.671Z,12.60
2022-10-30T06:31:46.557Z,12.60
2022-10-30T06:34:13.531Z,12.60
2022-10-30T06:36:42.123Z,12.60
2022-10-30T06:39:09.044Z,12.60
2022-10-30T06:41:58.554Z,12.60
2022-10-30T06:44:38.231Z,12.70
2022-10-30T06:47:05.267Z,12.70
2022-10-30T06:49:32.331Z,12.70
2022-10-30T06:51:59.483Z,12.70
2022-10-30T06:54:26.501Z,12.60
2022-10-30T06:57:13.970Z,12.60
2022-10-30T06:59:59.464Z,12.70
2022-10-30T07:02:35.108Z,12.60
2022-10-30T07:05:06.782Z,12.70
2022-10-30T07:07:33.695Z,12.60
2022-10-30T07:10:06.769Z,12.60
2022-10-30T07:12:53.218Z,12.70
2022-10-30T07:18:20.267Z,12.70
2022-10-30T07:20:48.285Z,12.60
2022-10-30T07:23:15.263Z,12.70
2022-10-30T07:25:42.104Z,12.60
2022-10-30T07:28:18.063Z,12.70
2022-10-30T07:31:05.667Z,12.70
2022-10-30T07:33:47.624Z,12.70
2022-10-30T07:36:22.122Z,12.70
2022-10-30T07:39:09.290Z,12.70
2022-10-30T07:41:51.612Z,12.70
2022-10-30T07:44:36.759Z,12.70
2022-10-30T07:47:42.300Z,12.80
2022-10-30T07:50:23.413Z,12.80
2022-10-30T07:52:50.269Z,12.80
2022-10-30T07:55:21.665Z,12.80
2022-10-30T07:57:48.692Z,12.80
2022-10-30T08:00:34.066Z,12.80
2022-10-30T08:03:13.803Z,12.80
2022-10-30T08:05:47.229Z,12.80
2022-10-30T08:08:20.454Z,12.80
2022-10-30T08:10:55.420Z,12.80
2022-10-30T08:13:22.591Z,12.90
2022-10-30T08:15:50.380Z,12.80
2022-10-30T08:18:17.275Z,12.90
2022-10-30T08:20:50.446Z,12.90
2022-10-30T08:23:19.779Z,12.90
2022-10-30T08:25:47.223Z,12.90
2022-10-30T08:28:14.600Z,12.90
2022-10-30T08:30:43.519Z,12.90
2022-10-30T08:33:14.253Z,12.90
2022-10-30T08:35:57.575Z,12.90
2022-10-30T08:38:26.358Z,13.00
2022-10-30T08:41:15.892Z,13.00
2022-10-30T08:43:49.167Z,13.00
2022-10-30T08:46:17.877Z,13.00
2022-10-30T08:48:44.706Z,13.00
2022-10-30T08:51:11.614Z,13.00
2022-10-30T08:53:43.816Z,13.00
2022-10-30T08:56:14.121Z,13.00
2022-10-30T08:58:50.522Z,13.00
2022-10-30T09:01:19.168Z,13.00
2022-10-30T09:04:04.662Z,13.10
2022-10-30T09:06:57.386Z,13.10
2022-10-30T09:09:42.800Z,13.10
2022-10-30T09:12:11.960Z,13.10
2022-10-30T09:14:43.139Z,13.10
2022-10-30T09:17:11.514Z,13.10
2022-10-30T09:19:41.787Z,13.10
2022-10-30T09:22:10.282Z,13.10
2022-10-30T09:24:40.330Z,13.20
2022-10-30T09:27:25.957Z,13.10
2022-10-30T09:29:55.730Z,13.10
2022-10-30T09:32:25.158Z,13.10
2022-10-30T09:35:03.127Z,13.20
2022-10-30T09:37:37.711Z,13.20
2022-10-30T09:40:08.586Z,13.20
2022-10-30T09:42:49.772Z,13.20
2022-10-30T09:45:30.028Z,13.20
2022-10-30T09:48:17.295Z,13.20
2022-10-30T09:51:16.243Z,13.30
2022-10-30T09:53:46.465Z,13.30
2022-10-30T09:56:36.394Z,13.30
2022-10-30T09:59:10.690Z,13.30
2022-10-30T10:01:49.836Z,13.40
2022-10-30T10:04:27.274Z,13.40
2022-10-30T10:07:27.731Z,13.40
2022-10-30T10:10:21.575Z,13.40
2022-10-30T10:13:01.644Z,13.50
2022-10-30T10:15:41.805Z,13.50
2022-10-30T10:18:16.406Z,13.60
2022-10-30T10:20:45.479Z,13.60
2022-10-30T10:23:18.161Z,13.60
2022-10-30T10:25:52.035Z,13.70
2022-10-30T10:28:35.650Z,13.70
2022-10-30T10:31:18.527Z,13.70
2022-10-30T10:33:53.649Z,13.80
2022-10-30T10:36:35.324Z,13.80
2022-10-30T10:39:05.382Z,13.80
2022-10-30T10:41:35.239Z,13.80
2022-10-30T10:44:23.368Z,13.80
2022-10-30T10:46:50.190Z,13.80
2022-10-30T10:49:39.074Z,13.80
2022-10-30T10:52:16.140Z,13.80
2022-10-30T10:54:45.361Z,13.90
2022-10-30T10:57:17.044Z,13.90
2022-10-30T10:59:47.638Z,13.90
2022-10-30T11:02:26.813Z,13.90
2022-10-30T11:04:55.527Z,13.90
2022-10-30T11:07:24.203Z,13.90
2022-10-30T11:09:52.396Z,13.90
2022-10-30T11:12:25.626Z,13.90
2022-10-30T11:14:52.535Z,13.90
2022-10-30T11:17:25.379Z,13.90
2022-10-30T11:19:58.546Z,13.90
2022-10-30T11:22:33.514Z,13.90
2022-10-30T11:25:22.327Z,13.90
2022-10-30T11:27:56.265Z,13.90
2022-10-30T11:30:25.516Z,13.90
2022-10-30T11:32:54.250Z,13.90
2022-10-30T11:35:24.359Z,14.00
2022-10-30T11:37:52.303Z,14.00
2022-10-30T11:40:23.620Z,14.00
2022-10-30T11:42:53.596Z,14.00
2022-10-30T11:45:25.327Z,14.00
2022-10-30T11:47:53.465Z,14.10
2022-10-30T11:50:22.132Z,14.00
2022-10-30T11:52:51.244Z,14.10
2022-10-30T11:55:24.749Z,14.10
2022-10-30T11:57:52.837Z,14.10
2022-10-30T12:00:21.677Z,14.00
2022-10-30T12:02:51.485Z,14.10
2022-10-30T12:05:27.270Z,14.10
2022-10-30T12:07:54.876Z,14.10
2022-10-30T12:10:29.179Z,14.10
2022-10-30T12:12:56.422Z,14.10
2022-10-30T12:15:27.175Z,14.20
2022-10-30T12:17:55.207Z,14.30
2022-10-30T12:20:22.061Z,14.30
2022-10-30T12:22:49.229Z,14.30
2022-10-30T12:25:24.013Z,14.30
2022-10-30T12:27:51.715Z,14.30
2022-10-30T12:30:19.606Z,14.30
2022-10-30T12:32:46.509Z,14.30
2022-10-30T12:35:28.467Z,14.30
2022-10-30T12:37:57.130Z,14.30
2022-10-30T12:40:43.908Z,14.30
2022-10-30T12:43:17.045Z,14.30
2022-10-30T12:45:46.489Z,14.30
2022-10-30T12:48:22.287Z,14.30
2022-10-30T12:51:07.903Z,14.30
2022-10-30T12:53:34.763Z,14.30
2022-10-30T12:56:09.060Z,14.20
2022-10-30T12:58:48.207Z,14.20
2022-10-30T13:01:26.769Z,14.10
2022-10-30T13:03:57.418Z,14.10
2022-10-30T13:06:27.515Z,14.10
2022-10-30T13:09:07.389Z,14.10
2022-10-30T13:11:40.617Z,14.10
2022-10-30T13:14:12.334Z,14.10
2022-10-30T13:16:39.263Z,14.00
2022-10-30T13:19:06.283Z,14.00
2022-10-30T13:21:33.575Z,14.00
2022-10-30T13:24:00.422Z,14.00
2022-10-30T13:26:45.896Z,14.00
2022-10-30T13:29:16.016Z,13.90
2022-10-30T13:32:09.457Z,13.80
2022-10-30T13:34:40.660Z,13.60
2022-10-30T13:37:23.320Z,13.30
2022-10-30T13:40:11.990Z,13.20
2022-10-30T13:42:57.004Z,12.90
2022-10-30T13:45:36.255Z,12.70
2022-10-30T13:48:06.232Z,12.60
2022-10-30T13:50:33.057Z,12.50
2022-10-30T13:53:02.129Z,12.40
2022-10-30T13:55:34.628Z,12.30
2022-10-30T13:58:04.513Z,12.30
2022-10-30T14:00:46.087Z,12.20
2022-10-30T14:03:12.911Z,12.20
2022-10-30T14:05:45.295Z,12.30
2022-10-30T14:08:18.387Z,12.20
2022-10-30T14:10:45.313Z,12.30
2022-10-30T14:13:21.314Z,12.30
2022-10-30T14:15:48.245Z,12.30
2022-10-30T14:18:15.094Z,12.30
2022-10-30T14:20:49.112Z,12.30
2022-10-30T14:23:21.339Z,12.30
2022-10-30T14:26:06.221Z,12.30
2022-10-30T14:28:36.919Z,12.30
2022-10-30T14:31:11.183Z,12.20
2022-10-30T14:33:51.864Z,12.20
2022-10-30T14:36:34.333Z,12.20
2022-10-30T14:39:21.140Z,12.20
2022-10-30T14:41:47.926Z,12.10
2022-10-30T14:44:33.448Z,12.10
2022-10-30T14:47:06.395Z,12.10
2022-10-30T14:49:45.538Z,12.10
2022-10-30T14:52:17.878Z,12.10
2022-10-30T14:54:54.602Z,12.10
2022-10-30T14:57:22.429Z,12.10
2022-10-30T14:59:49.299Z,12.10
2022-10-30T15:02:22.351Z,12.10
2022-10-30T15:04:52.383Z,12.10
2022-10-30T15:07:28.554Z,12.10
2022-10-30T15:09:58.204Z,12.10
2022-10-30T15:12:25.245Z,12.10
2022-10-30T15:14:56.903Z,12.00
2022-10-30T15:17:28.965Z,12.00
2022-10-30T15:19:56.064Z,12.00
2022-10-30T15:22:23.630Z,12.10
2022-10-30T15:24:51.315Z,12.00
2022-10-30T15:27:19.345Z,12.00
2022-10-30T15:29:51.922Z,12.00
2022-10-30T15:32:22.917Z,11.90
2022-10-30T15:34:55.835Z,11.90
2022-10-30T15:37:22.811Z,11.90
2022-10-30T15:39:49.690Z,11.90
2022-10-30T15:42:17.151Z,11.90
2022-10-30T15:44:45.156Z,11.80
2022-10-30T15:47:16.448Z,11.80
2022-10-30T15:49:48.781Z,11.80
2022-10-30T15:52:17.207Z,11.80
2022-10-30T15:54:45.480Z,11.80
2022-10-30T15:57:49.398Z,11.80
2022-10-30T16:00:08.071Z,11.80
2022-10-30T16:02:36.555Z,11.80
2022-10-30T16:05:19.212Z,11.80
2022-10-30T16:07:46.377Z,11.80
2022-10-30T16:10:15.676Z,11.70
2022-10-30T16:12:42.828Z,11.70
2022-10-30T16:15:21.063Z,11.80
2022-10-30T16:17:50.762Z,11.70
2022-10-30T16:20:20.339Z,11.70
2022-10-30T16:22:47.361Z,11.70
2022-10-30T16:25:15.751Z,11.70
2022-10-30T16:27:45.913Z,11.70
2022-10-30T16:30:14.036Z,11.70
2022-10-30T16:32:40.953Z,11.70
2022-10-30T16:35:09.998Z,11.70
2022-10-30T16:37:39.499Z,11.70
2022-10-30T16:40:14.010Z,11.70
2022-10-30T16:42:40.934Z,11.60
2022-10-30T16:45:10.883Z,11.60
2022-10-30T16:47:43.251Z,11.60
2022-10-30T16:50:12.682Z,11.60
2022-10-30T16:52:39.486Z,11.60
2022-10-30T16:55:06.443Z,11.60
2022-10-30T16:57:35.539Z,11.60
2022-10-30T17:00:03.451Z,11.60
2022-10-30T17:02:32.661Z,11.60
2022-10-30T17:05:23.761Z,11.50
2022-10-30T17:07:57.748Z,11.50
2022-10-30T17:10:31.938Z,11.50
2022-10-30T17:13:17.786Z,11.50
2022-10-30T17:15:47.078Z,11.50
2022-10-30T17:18:17.919Z,11.50
2022-10-30T17:20:44.880Z,11.50
2022-10-30T17:23:16.338Z,11.50
2022-10-30T17:25:43.380Z,11.50
2022-10-30T17:28:25.826Z,11.50
2022-10-30T17:30:52.956Z,11.50
2022-10-30T17:33:23.411Z,11.40
2022-10-30T17:35:50.637Z,11.40
2022-10-30T17:38:17.722Z,11.40
2022-10-30T17:40:44.617Z,11.50
2022-10-30T17:43:15.462Z,11.40
2022-10-30T17:45:43.140Z,11.40
2022-10-30T17:48:14.457Z,11.40
2022-10-30T17:50:41.439Z,11.50
2022-10-30T17:53:21.947Z,11.50
2022-10-30T17:55:54.407Z,11.50
2022-10-30T17:58:23.901Z,11.50
2022-10-30T18:00:52.714Z,11.50
2022-10-30T18:03:50.057Z,11.50
2022-10-30T18:06:27.134Z,11.50
2022-10-30T18:09:04.023Z,11.50
2022-10-30T18:11:50.828Z,11.50
2022-10-30T18:14:20.630Z,11.60
2022-10-30T18:17:15.650Z,11.50
2022-10-30T18:19:47.602Z,11.60
2022-10-30T18:22:29.860Z,11.60
2022-10-30T18:25:18.914Z,11.60
2022-10-30T18:27:55.463Z,11.60
2022-10-30T18:30:38.893Z,11.60
2022-10-30T18:33:16.466Z,11.60
2022-10-30T18:35:48.473Z,11.70
2022-10-30T18:38:31.882Z,11.70
2022-10-30T18:41:12.729Z,11.70
2022-10-30T18:43:58.713Z,11.70
2022-10-30T18:46:36.313Z,11.80
2022-10-30T18:49:40.507Z,11.70
2022-10-30T18:52:13.305Z,11.70
2022-10-30T18:55:01.473Z,11.80
2022-10-30T18:57:34.948Z,11.70
2022-10-30T19:00:15.868Z,11.70
2022-10-30T19:03:07.493Z,11.70
2022-10-30T19:05:54.513Z,11.70
2022-10-30T19:08:35.081Z,11.70
2022-10-30T19:11:11.486Z,11.70
2022-10-30T19:13:46.286Z,11.70
2022-10-30T19:16:21.970Z,11.70
2022-10-30T19:19:19.228Z,11.70
2022-10-30T19:21:53.844Z,11.70
2022-10-30T19:27:18.152Z,11.70
2022-10-30T19:30:10.576Z,11.70
2022-10-30T19:32:44.819Z,11.70
2022-10-30T19:35:20.380Z,11.70
2022-10-30T19:38:00.011Z,11.70
2022-10-30T19:40:45.296Z,11.70
2022-10-30T19:43:23.368Z,11.80
2022-10-30T19:46:14.711Z,11.80
2022-10-30T19:49:00.501Z,11.80
2022-10-30T19:51:28.264Z,11.80
2022-10-30T19:53:55.852Z,11.80
2022-10-30T19:56:31.176Z,11.80
2022-10-30T19:58:59.887Z,11.80
2022-10-30T20:01:28.346Z,11.80
2022-10-30T20:03:58.965Z,11.80
2022-10-30T20:06:27.143Z,11.80
2022-10-30T20:08:57.780Z,11.70
2022-10-30T20:11:25.980Z,11.80
2022-10-30T20:13:54.720Z,11.80
2022-10-30T20:16:22.439Z,11.80
2022-10-30T20:18:50.973Z,11.80
2022-10-30T20:21:19.316Z,11.80
2022-10-30T20:23:47.534Z,11.80
2022-10-30T20:26:28.084Z,11.80
2022-10-30T20:28:55.088Z,11.80
2022-10-30T20:31:22.188Z,11.80
2022-10-30T20:33:49.159Z,11.80
2022-10-30T20:36:17.730Z,11.80
2022-10-30T20:38:44.829Z,11.80
2022-10-30T20:41:19.624Z,11.80
2022-10-30T20:43:46.499Z,11.90
2022-10-30T20:46:13.251Z,11.80
2022-10-30T20:48:40.037Z,11.80
2022-10-30T20:51:06.945Z,11.80
2022-10-30T20:53:34.115Z,11.80
2022-10-30T20:56:01.073Z,11.80
2022-10-30T20:58:28.216Z,11.80
2022-10-30T21:00:55.746Z,11.80
2022-10-30T21:03:22.643Z,11.80
2022-10-30T21:05:54.325Z,11.80
2022-10-30T21:08:21.208Z,11.70
2022-10-30T21:10:47.984Z,11.70
2022-10-30T21:13:16.297Z,11.70
2022-10-30T21:15:44.441Z,11.70
2022-10-30T21:18:12.903Z,11.70
2022-10-30T21:20:41.191Z,11.70
2022-10-30T21:23:08.618Z,11.70
2022-10-30T21:25:39.739Z,11.70
2022-10-30T21:28:06.532Z,11.70
2022-10-30T21:30:33.352Z,11.70
2022-10-30T21:33:00.546Z,11.70
2022-10-30T21:35:27.847Z,11.60
2022-10-30T21:37:54.780Z,11.70
2022-10-30T21:40:40.533Z,11.70
2022-10-30T21:43:07.818Z,11.70
2022-10-30T21:45:36.503Z,11.70
2022-10-30T21:48:03.468Z,11.70
2022-10-30T21:50:30.275Z,11.70
2022-10-30T21:52:57.483Z,11.70
2022-10-30T21:55:24.736Z,11.70
2022-10-30T21:57:51.534Z,11.70
2022-10-30T22:00:18.439Z,11.80
2022-10-30T22:02:47.402Z,11.70
2022-10-30T22:05:14.233Z,11.70
2022-10-30T22:07:41.179Z,11.80
2022-10-30T22:10:08.217Z,11.80
2022-10-30T22:12:35.084Z,11.80
2022-10-30T22:15:01.910Z,11.70
2022-10-30T22:17:30.789Z,11.80
2022-10-30T22:20:00.887Z,11.80
2022-10-30T22:22:30.895Z,11.80
2022-10-30T22:24:57.761Z,11.80
2022-10-30T22:27:24.565Z,11.80
2022-10-30T22:29:51.413Z,11.80
2022-10-30T22:32:18.224Z,11.80
2022-10-30T22:34:45.081Z,11.80
2022-10-30T22:37:11.883Z,11.80
2022-10-30T22:39:38.644Z,11.80
2022-10-30T22:42:05.509Z,11.80
2022-10-30T22:44:32.364Z,11.80
2022-10-30T22:46:59.171Z,11.80
2022-10-30T22:49:26.006Z,11.80
2022-10-30T22:51:52.827Z,11.80
2022-10-30T22:54:19.685Z,11.80
2022-10-30T22:56:46.494Z,11.80
2022-10-30T22:59:13.759Z,11.80
2022-10-30T23:01:41.313Z,11.80
2022-10-30T23:04:10.088Z,11.80
2022-10-30T23:06:37.035Z,11.90
2022-10-30T23:09:05.428Z,11.90
2022-10-30T23:11:33.137Z,11.90
2022-10-30T23:14:00.044Z,11.90
2022-10-30T23:16:26.820Z,11.90
2022-10-30T23:18:54.394Z,11.90
2022-10-30T23:21:23.096Z,11.90
2022-10-30T23:23:50.088Z,11.90
2022-10-30T23:26:18.152Z,11.90
2022-10-30T23:28:46.819Z,11.90
2022-10-30T23:31:22.778Z,11.90
2022-10-30T23:33:50.392Z,11.90
2022-10-30T23:36:17.562Z,11.90
2022-10-30T23:38:44.369Z,11.90
2022-10-30T23:41:11.183Z,11.90
2022-10-30T23:43:38.061Z,11.90
2022-10-30T23:46:04.891Z,11.90
2022-10-30T23:48:31.894Z,11.90
2022-10-30T23:50:59.061Z,11.90
2022-10-30T23:53:25.908Z,11.90
2022-10-30T23:55:53.085Z,12.00
2022-10-30T23:58:20.836Z,12.00
